sensor_id;sensor_type;location;lat;lon;timestamp;temperature;humidity
17425;DHT22;8830;50.978;5.058;2022-12-07T00:01:26;5.70;99.90
17425;DHT22;8830;50.978;5.058;2022-12-07T00:03:56;5.60;99.90
17425;DHT22;8830;50.978;5.058;2022-12-07T00:06:30;5.80;99.90
17425;DHT22;8830;50.978;5.058;2022-12-07T00:08:58;5.40;99.90
17425;DHT22;8830;50.978;5.058;2022-12-07T00:11:26;5.30;99.90
17425;DHT22;8830;50.978;5.058;2022-12-07T00:13:55;5.20;99.90
17425;DHT22;8830;50.978;5.058;2022-12-07T00:16:24;5.20;99.90
17425;DHT22;8830;50.978;5.058;2022-12-07T00:18:52;5.30;99.90
17425;DHT22;8830;50.978;5.058;2022-12-07T00:21:24;5.20;99.90
17425;DHT22;8830;50.978;5.058;2022-12-07T00:23:52;5.20;99.90
17425;DHT22;8830;50.978;5.058;2022-12-07T00:26:22;5.10;99.90
17425;DHT22;8830;50.978;5.058;2022-12-07T00:28:55;5.20;99.90
17425;DHT22;8830;50.978;5.058;2022-12-07T00:31:25;5.20;99.90
17425;DHT22;8830;50.978;5.058;2022-12-07T00:33:53;6.10;99.90
17425;DHT22;8830;50.978;5.058;2022-12-07T00:36:22;5.90;99.90
17425;DHT22;8830;50.978;5.058;2022-12-07T00:38:50;5.30;99.90
17425;DHT22;8830;50.978;5.058;2022-12-07T00:41:19;5.40;99.90
17425;DHT22;8830;50.978;5.058;2022-12-07T00:43:48;5.50;99.90
17425;DHT22;8830;50.978;5.058;2022-12-07T00:46:24;5.50;99.90
17425;DHT22;8830;50.978;5.058;2022-12-07T00:48:54;5.60;99.90
17425;DHT22;8830;50.978;5.058;2022-12-07T00:51:22;5.60;99.90
17425;DHT22;8830;50.978;5.058;2022-12-07T00:53:53;5.70;99.90
17425;DHT22;8830;50.978;5.058;2022-12-07T00:56:24;5.70;99.90
17425;DHT22;8830;50.978;5.058;2022-12-07T00:58:52;5.70;99.90
17425;DHT22;8830;50.978;5.058;2022-12-07T01:01:20;5.70;99.90
17425;DHT22;8830;50.978;5.058;2022-12-07T01:03:49;6.40;99.90
17425;DHT22;8830;50.978;5.058;2022-12-07T01:06:17;5.70;99.90
17425;DHT22;8830;50.978;5.058;2022-12-07T01:08:45;5.80;99.90
17425;DHT22;8830;50.978;5.058;2022-12-07T01:11:17;5.80;99.90
17425;DHT22;8830;50.978;5.058;2022-12-07T01:13:45;5.80;99.90
17425;DHT22;8830;50.978;5.058;2022-12-07T01:16:16;5.80;99.90
17425;DHT22;8830;50.978;5.058;2022-12-07T01:18:47;5.80;99.90
17425;DHT22;8830;50.978;5.058;2022-12-07T01:21:20;5.80;99.90
17425;DHT22;8830;50.978;5.058;2022-12-07T01:23:48;5.80;99.90
17425;DHT22;8830;50.978;5.058;2022-12-07T01:26:17;5.80;99.90
17425;DHT22;8830;50.978;5.058;2022-12-07T01:28:45;5.80;99.90
17425;DHT22;8830;50.978;5.058;2022-12-07T01:31:19;5.80;99.90
17425;DHT22;8830;50.978;5.058;2022-12-07T01:33:48;5.80;99.90
17425;DHT22;8830;50.978;5.058;2022-12-07T01:36:19;5.80;99.90
17425;DHT22;8830;50.978;5.058;2022-12-07T01:38:49;5.80;99.90
17425;DHT22;8830;50.978;5.058;2022-12-07T01:41:18;5.70;99.90
17425;DHT22;8830;50.978;5.058;2022-12-07T01:44:09;5.70;99.90
17425;DHT22;8830;50.978;5.058;2022-12-07T01:46:37;5.60;99.90
17425;DHT22;8830;50.978;5.058;2022-12-07T01:49:06;5.60;99.90
17425;DHT22;8830;50.978;5.058;2022-12-07T01:51:37;5.50;99.90
17425;DHT22;8830;50.978;5.058;2022-12-07T01:54:06;5.50;99.90
17425;DHT22;8830;50.978;5.058;2022-12-07T01:56:34;5.70;99.90
17425;DHT22;8830;50.978;5.058;2022-12-07T01:59:02;5.50;99.90
17425;DHT22;8830;50.978;5.058;2022-12-07T02:03:56;5.50;99.90
17425;DHT22;8830;50.978;5.058;2022-12-07T02:06:25;5.50;99.90
17425;DHT22;8830;50.978;5.058;2022-12-07T02:08:55;5.50;99.90
17425;DHT22;8830;50.978;5.058;2022-12-07T02:11:22;6.10;99.90
17425;DHT22;8830;50.978;5.058;2022-12-07T02:13:52;5.60;99.90
17425;DHT22;8830;50.978;5.058;2022-12-07T02:16:31;5.60;99.90
17425;DHT22;8830;50.978;5.058;2022-12-07T02:19:30;5.50;99.90
17425;DHT22;8830;50.978;5.058;2022-12-07T02:22:16;5.40;99.90
17425;DHT22;8830;50.978;5.058;2022-12-07T02:24:54;5.30;99.90
17425;DHT22;8830;50.978;5.058;2022-12-07T02:27:39;5.20;99.90
17425;DHT22;8830;50.978;5.058;2022-12-07T02:30:09;5.30;99.90
17425;DHT22;8830;50.978;5.058;2022-12-07T02:32:44;7.50;99.90
17425;DHT22;8830;50.978;5.058;2022-12-07T02:35:19;5.20;99.90
17425;DHT22;8830;50.978;5.058;2022-12-07T02:37:57;5.30;99.90
17425;DHT22;8830;50.978;5.058;2022-12-07T02:40:29;5.30;99.90
17425;DHT22;8830;50.978;5.058;2022-12-07T02:43:02;5.30;99.90
17425;DHT22;8830;50.978;5.058;2022-12-07T02:45:35;5.40;99.90
17425;DHT22;8830;50.978;5.058;2022-12-07T02:48:04;5.50;99.90
17425;DHT22;8830;50.978;5.058;2022-12-07T02:50:34;5.50;99.90
17425;DHT22;8830;50.978;5.058;2022-12-07T02:53:02;5.40;99.90
17425;DHT22;8830;50.978;5.058;2022-12-07T02:55:31;6.00;99.90
17425;DHT22;8830;50.978;5.058;2022-12-07T02:58:16;5.50;99.90
17425;DHT22;8830;50.978;5.058;2022-12-07T03:01:00;5.50;99.90
17425;DHT22;8830;50.978;5.058;2022-12-07T03:03:32;5.50;99.90
17425;DHT22;8830;50.978;5.058;2022-12-07T03:06:08;5.50;99.90
17425;DHT22;8830;50.978;5.058;2022-12-07T03:08:46;5.50;99.90
17425;DHT22;8830;50.978;5.058;2022-12-07T03:11:24;5.50;99.90
17425;DHT22;8830;50.978;5.058;2022-12-07T03:13:59;5.50;99.90
17425;DHT22;8830;50.978;5.058;2022-12-07T03:16:33;5.50;99.90
17425;DHT22;8830;50.978;5.058;2022-12-07T03:19:04;5.50;99.90
17425;DHT22;8830;50.978;5.058;2022-12-07T03:21:36;5.50;99.90
17425;DHT22;8830;50.978;5.058;2022-12-07T03:24:07;5.50;99.90
17425;DHT22;8830;50.978;5.058;2022-12-07T03:26:40;5.50;99.90
17425;DHT22;8830;50.978;5.058;2022-12-07T03:29:14;5.50;99.90
17425;DHT22;8830;50.978;5.058;2022-12-07T03:31:46;5.50;99.90
17425;DHT22;8830;50.978;5.058;2022-12-07T03:34:19;5.50;99.90
17425;DHT22;8830;50.978;5.058;2022-12-07T03:36:50;5.40;99.90
17425;DHT22;8830;50.978;5.058;2022-12-07T03:39:24;5.30;99.90
17425;DHT22;8830;50.978;5.058;2022-12-07T03:41:54;5.30;99.90
17425;DHT22;8830;50.978;5.058;2022-12-07T03:44:23;5.40;99.90
17425;DHT22;8830;50.978;5.058;2022-12-07T03:47:01;5.30;99.90
17425;DHT22;8830;50.978;5.058;2022-12-07T03:49:37;5.30;99.90
17425;DHT22;8830;50.978;5.058;2022-12-07T03:52:12;5.20;99.90
17425;DHT22;8830;50.978;5.058;2022-12-07T03:54:47;5.20;99.90
17425;DHT22;8830;50.978;5.058;2022-12-07T03:57:17;5.20;99.90
17425;DHT22;8830;50.978;5.058;2022-12-07T03:59:51;5.20;99.90
17425;DHT22;8830;50.978;5.058;2022-12-07T04:02:22;5.10;99.90
17425;DHT22;8830;50.978;5.058;2022-12-07T04:04:52;5.10;99.90
17425;DHT22;8830;50.978;5.058;2022-12-07T04:07:20;5.10;99.90
17425;DHT22;8830;50.978;5.058;2022-12-07T04:09:48;4.90;99.90
17425;DHT22;8830;50.978;5.058;2022-12-07T04:12:15;4.90;99.90
17425;DHT22;8830;50.978;5.058;2022-12-07T04:14:43;4.70;99.90
17425;DHT22;8830;50.978;5.058;2022-12-07T04:17:11;5.20;99.90
17425;DHT22;8830;50.978;5.058;2022-12-07T04:19:40;4.60;99.90
17425;DHT22;8830;50.978;5.058;2022-12-07T04:22:08;4.60;99.90
17425;DHT22;8830;50.978;5.058;2022-12-07T04:24:35;4.60;99.90
17425;DHT22;8830;50.978;5.058;2022-12-07T04:27:04;4.60;99.90
17425;DHT22;8830;50.978;5.058;2022-12-07T04:29:31;4.60;99.90
17425;DHT22;8830;50.978;5.058;2022-12-07T04:31:58;4.70;99.90
17425;DHT22;8830;50.978;5.058;2022-12-07T04:34:25;4.80;99.90
17425;DHT22;8830;50.978;5.058;2022-12-07T04:36:56;4.80;99.90
17425;DHT22;8830;50.978;5.058;2022-12-07T04:39:24;4.80;99.90
17425;DHT22;8830;50.978;5.058;2022-12-07T04:41:52;4.80;99.90
17425;DHT22;8830;50.978;5.058;2022-12-07T04:44:22;4.70;99.90
17425;DHT22;8830;50.978;5.058;2022-12-07T04:46:55;4.60;99.90
17425;DHT22;8830;50.978;5.058;2022-12-07T04:49:23;4.50;99.90
17425;DHT22;8830;50.978;5.058;2022-12-07T04:51:54;4.40;99.90
17425;DHT22;8830;50.978;5.058;2022-12-07T04:54:23;4.30;99.90
17425;DHT22;8830;50.978;5.058;2022-12-07T04:56:50;4.40;99.90
17425;DHT22;8830;50.978;5.058;2022-12-07T04:59:18;4.30;99.90
17425;DHT22;8830;50.978;5.058;2022-12-07T05:01:45;4.30;99.90
17425;DHT22;8830;50.978;5.058;2022-12-07T05:04:14;4.40;99.90
17425;DHT22;8830;50.978;5.058;2022-12-07T05:06:41;4.50;99.90
17425;DHT22;8830;50.978;5.058;2022-12-07T05:09:10;4.50;99.90
17425;DHT22;8830;50.978;5.058;2022-12-07T05:11:37;4.90;99.90
17425;DHT22;8830;50.978;5.058;2022-12-07T05:14:09;4.60;99.90
17425;DHT22;8830;50.978;5.058;2022-12-07T05:16:37;4.70;99.90
17425;DHT22;8830;50.978;5.058;2022-12-07T05:19:05;4.80;99.90
17425;DHT22;8830;50.978;5.058;2022-12-07T05:21:32;4.80;99.90
17425;DHT22;8830;50.978;5.058;2022-12-07T05:23:59;4.90;99.90
17425;DHT22;8830;50.978;5.058;2022-12-07T05:26:28;4.90;99.90
17425;DHT22;8830;50.978;5.058;2022-12-07T05:28:56;4.90;99.90
17425;DHT22;8830;50.978;5.058;2022-12-07T05:31:25;5.00;99.90
17425;DHT22;8830;50.978;5.058;2022-12-07T05:33:53;5.00;99.90
17425;DHT22;8830;50.978;5.058;2022-12-07T05:36:21;4.90;99.90
17425;DHT22;8830;50.978;5.058;2022-12-07T05:38:48;4.90;99.90
17425;DHT22;8830;50.978;5.058;2022-12-07T05:41:18;4.90;99.90
17425;DHT22;8830;50.978;5.058;2022-12-07T05:44:06;5.00;99.90
17425;DHT22;8830;50.978;5.058;2022-12-07T05:46:34;5.00;99.90
17425;DHT22;8830;50.978;5.058;2022-12-07T05:49:04;5.00;99.90
17425;DHT22;8830;50.978;5.058;2022-12-07T05:51:31;5.50;99.90
17425;DHT22;8830;50.978;5.058;2022-12-07T05:54:01;5.10;99.90
17425;DHT22;8830;50.978;5.058;2022-12-07T05:56:30;5.10;99.90
17425;DHT22;8830;50.978;5.058;2022-12-07T05:58:58;5.10;99.90
17425;DHT22;8830;50.978;5.058;2022-12-07T06:01:44;5.10;99.90
17425;DHT22;8830;50.978;5.058;2022-12-07T06:04:15;5.30;99.90
17425;DHT22;8830;50.978;5.058;2022-12-07T06:06:44;5.20;99.90
17425;DHT22;8830;50.978;5.058;2022-12-07T06:09:13;5.20;99.90
17425;DHT22;8830;50.978;5.058;2022-12-07T06:11:41;5.20;99.90
17425;DHT22;8830;50.978;5.058;2022-12-07T06:14:27;5.20;99.90
17425;DHT22;8830;50.978;5.058;2022-12-07T06:16:57;5.20;99.90
17425;DHT22;8830;50.978;5.058;2022-12-07T06:19:24;5.20;99.90
17425;DHT22;8830;50.978;5.058;2022-12-07T06:21:52;5.20;99.90
17425;DHT22;8830;50.978;5.058;2022-12-07T06:24:19;5.20;99.90
17425;DHT22;8830;50.978;5.058;2022-12-07T06:26:49;5.20;99.90
17425;DHT22;8830;50.978;5.058;2022-12-07T06:29:17;5.10;99.90
17425;DHT22;8830;50.978;5.058;2022-12-07T06:31:45;6.10;99.90
17425;DHT22;8830;50.978;5.058;2022-12-07T06:34:15;5.20;99.90
17425;DHT22;8830;50.978;5.058;2022-12-07T06:36:44;5.20;99.90
17425;DHT22;8830;50.978;5.058;2022-12-07T06:39:13;5.20;99.90
17425;DHT22;8830;50.978;5.058;2022-12-07T06:41:41;5.20;99.90
17425;DHT22;8830;50.978;5.058;2022-12-07T06:44:09;5.10;99.90
17425;DHT22;8830;50.978;5.058;2022-12-07T06:46:39;5.10;99.90
17425;DHT22;8830;50.978;5.058;2022-12-07T06:49:06;5.10;99.90
17425;DHT22;8830;50.978;5.058;2022-12-07T06:51:35;5.00;99.90
17425;DHT22;8830;50.978;5.058;2022-12-07T06:54:06;4.90;99.90
17425;DHT22;8830;50.978;5.058;2022-12-07T06:56:33;4.80;99.90
17425;DHT22;8830;50.978;5.058;2022-12-07T06:59:01;4.80;99.90
17425;DHT22;8830;50.978;5.058;2022-12-07T07:01:28;4.80;99.90
17425;DHT22;8830;50.978;5.058;2022-12-07T07:03:55;4.80;99.90
17425;DHT22;8830;50.978;5.058;2022-12-07T07:06:23;4.80;99.90
17425;DHT22;8830;50.978;5.058;2022-12-07T07:08:52;4.80;99.90
17425;DHT22;8830;50.978;5.058;2022-12-07T07:11:22;4.90;99.90
17425;DHT22;8830;50.978;5.058;2022-12-07T07:13:52;4.80;99.90
17425;DHT22;8830;50.978;5.058;2022-12-07T07:16:23;4.80;99.90
17425;DHT22;8830;50.978;5.058;2022-12-07T07:18:50;4.70;99.90
17425;DHT22;8830;50.978;5.058;2022-12-07T07:21:17;4.60;99.90
17425;DHT22;8830;50.978;5.058;2022-12-07T07:23:45;4.50;99.90
17425;DHT22;8830;50.978;5.058;2022-12-07T07:26:13;4.50;99.90
17425;DHT22;8830;50.978;5.058;2022-12-07T07:28:40;4.50;99.90
17425;DHT22;8830;50.978;5.058;2022-12-07T07:31:13;4.40;99.90
17425;DHT22;8830;50.978;5.058;2022-12-07T07:33:44;4.40;99.90
17425;DHT22;8830;50.978;5.058;2022-12-07T07:36:16;4.40;99.90
17425;DHT22;8830;50.978;5.058;2022-12-07T07:38:46;4.40;99.90
17425;DHT22;8830;50.978;5.058;2022-12-07T07:41:19;4.40;99.90
17425;DHT22;8830;50.978;5.058;2022-12-07T07:43:53;4.30;99.90
17425;DHT22;8830;50.978;5.058;2022-12-07T07:46:29;4.30;99.90
17425;DHT22;8830;50.978;5.058;2022-12-07T07:49:02;4.30;99.90
17425;DHT22;8830;50.978;5.058;2022-12-07T07:51:30;4.30;99.90
17425;DHT22;8830;50.978;5.058;2022-12-07T07:54:04;4.30;99.90
17425;DHT22;8830;50.978;5.058;2022-12-07T07:56:54;4.30;99.90
17425;DHT22;8830;50.978;5.058;2022-12-07T08:02:34;4.30;99.90
17425;DHT22;8830;50.978;5.058;2022-12-07T08:05:14;4.30;99.90
17425;DHT22;8830;50.978;5.058;2022-12-07T08:08:01;4.30;99.90
17425;DHT22;8830;50.978;5.058;2022-12-07T08:10:36;4.40;99.90
17425;DHT22;8830;50.978;5.058;2022-12-07T08:13:28;4.40;99.90
17425;DHT22;8830;50.978;5.058;2022-12-07T08:16:09;4.50;99.90
17425;DHT22;8830;50.978;5.058;2022-12-07T08:19:00;4.70;99.90
17425;DHT22;8830;50.978;5.058;2022-12-07T08:21:37;4.70;99.90
17425;DHT22;8830;50.978;5.058;2022-12-07T08:24:09;4.90;99.90
17425;DHT22;8830;50.978;5.058;2022-12-07T08:26:55;5.10;99.90
17425;DHT22;8830;50.978;5.058;2022-12-07T08:29:55;5.30;99.90
17425;DHT22;8830;50.978;5.058;2022-12-07T08:32:25;5.60;99.90
17425;DHT22;8830;50.978;5.058;2022-12-07T08:35:10;5.70;99.90
17425;DHT22;8830;50.978;5.058;2022-12-07T08:37:53;6.10;99.90
17425;DHT22;8830;50.978;5.058;2022-12-07T08:41:14;5.80;99.90
17425;DHT22;8830;50.978;5.058;2022-12-07T08:43:58;5.90;99.90
17425;DHT22;8830;50.978;5.058;2022-12-07T08:49:41;5.90;99.90
17425;DHT22;8830;50.978;5.058;2022-12-07T08:52:27;6.00;99.90
17425;DHT22;8830;50.978;5.058;2022-12-07T08:55:14;6.00;99.90
17425;DHT22;8830;50.978;5.058;2022-12-07T08:57:57;6.00;99.90
17425;DHT22;8830;50.978;5.058;2022-12-07T09:00:33;6.10;99.90
17425;DHT22;8830;50.978;5.058;2022-12-07T09:03:12;6.00;99.90
17425;DHT22;8830;50.978;5.058;2022-12-07T09:06:16;6.00;99.90
17425;DHT22;8830;50.978;5.058;2022-12-07T09:09:01;6.10;99.90
17425;DHT22;8830;50.978;5.058;2022-12-07T09:11:40;6.20;99.90
17425;DHT22;8830;50.978;5.058;2022-12-07T09:14:13;6.00;99.90
17425;DHT22;8830;50.978;5.058;2022-12-07T09:16:48;5.90;99.90
17425;DHT22;8830;50.978;5.058;2022-12-07T09:19:32;6.10;99.90
17425;DHT22;8830;50.978;5.058;2022-12-07T09:22:32;6.10;99.90
17425;DHT22;8830;50.978;5.058;2022-12-07T09:25:04;6.10;99.90
17425;DHT22;8830;50.978;5.058;2022-12-07T09:27:39;6.10;99.90
17425;DHT22;8830;50.978;5.058;2022-12-07T09:30:12;6.10;99.90
17425;DHT22;8830;50.978;5.058;2022-12-07T09:32:57;6.20;99.90
17425;DHT22;8830;50.978;5.058;2022-12-07T09:36:08;6.40;99.90
17425;DHT22;8830;50.978;5.058;2022-12-07T09:39:07;6.40;99.90
17425;DHT22;8830;50.978;5.058;2022-12-07T09:42:04;6.60;99.90
17425;DHT22;8830;50.978;5.058;2022-12-07T09:44:45;7.00;99.90
17425;DHT22;8830;50.978;5.058;2022-12-07T09:47:37;7.00;99.90
17425;DHT22;8830;50.978;5.058;2022-12-07T09:50:46;7.10;99.90
17425;DHT22;8830;50.978;5.058;2022-12-07T09:53:30;7.10;99.90
17425;DHT22;8830;50.978;5.058;2022-12-07T09:56:24;7.20;99.90
17425;DHT22;8830;50.978;5.058;2022-12-07T09:59:03;7.30;99.90
17425;DHT22;8830;50.978;5.058;2022-12-07T10:01:44;7.40;99.90
17425;DHT22;8830;50.978;5.058;2022-12-07T10:04:45;7.50;99.90
17425;DHT22;8830;50.978;5.058;2022-12-07T10:07:31;7.60;99.90
17425;DHT22;8830;50.978;5.058;2022-12-07T10:10:09;7.80;99.90
17425;DHT22;8830;50.978;5.058;2022-12-07T10:13:10;7.80;99.90
17425;DHT22;8830;50.978;5.058;2022-12-07T10:15:51;7.80;99.90
17425;DHT22;8830;50.978;5.058;2022-12-07T10:18:45;7.70;99.90
17425;DHT22;8830;50.978;5.058;2022-12-07T10:21:34;7.70;99.90
17425;DHT22;8830;50.978;5.058;2022-12-07T10:24:19;7.60;99.90
17425;DHT22;8830;50.978;5.058;2022-12-07T10:27:42;7.50;99.90
17425;DHT22;8830;50.978;5.058;2022-12-07T10:30:29;7.50;99.90
17425;DHT22;8830;50.978;5.058;2022-12-07T10:33:28;7.40;99.90
17425;DHT22;8830;50.978;5.058;2022-12-07T10:36:23;7.50;99.90
17425;DHT22;8830;50.978;5.058;2022-12-07T10:39:13;7.50;99.90
17425;DHT22;8830;50.978;5.058;2022-12-07T10:42:03;7.50;99.90
17425;DHT22;8830;50.978;5.058;2022-12-07T10:44:37;7.40;99.90
17425;DHT22;8830;50.978;5.058;2022-12-07T10:47:32;7.40;99.90
17425;DHT22;8830;50.978;5.058;2022-12-07T10:50:24;7.50;99.90
17425;DHT22;8830;50.978;5.058;2022-12-07T10:56:54;7.70;99.90
17425;DHT22;8830;50.978;5.058;2022-12-07T11:00:02;7.70;99.90
17425;DHT22;8830;50.978;5.058;2022-12-07T11:06:18;7.90;99.90
17425;DHT22;8830;50.978;5.058;2022-12-07T11:09:24;8.00;99.90
17425;DHT22;8830;50.978;5.058;2022-12-07T11:12:26;8.00;99.90
17425;DHT22;8830;50.978;5.058;2022-12-07T11:15:22;8.30;99.90
17425;DHT22;8830;50.978;5.058;2022-12-07T11:18:22;8.30;99.90
17425;DHT22;8830;50.978;5.058;2022-12-07T11:21:12;8.40;99.90
17425;DHT22;8830;50.978;5.058;2022-12-07T11:23:55;8.40;99.90
17425;DHT22;8830;50.978;5.058;2022-12-07T11:26:56;8.50;99.90
17425;DHT22;8830;50.978;5.058;2022-12-07T11:29:59;8.70;99.90
17425;DHT22;8830;50.978;5.058;2022-12-07T11:32:55;8.70;99.90
17425;DHT22;8830;50.978;5.058;2022-12-07T11:36:04;8.60;99.90
17425;DHT22;8830;50.978;5.058;2022-12-07T11:39:09;8.70;99.90
17425;DHT22;8830;50.978;5.058;2022-12-07T11:42:26;8.70;99.90
17425;DHT22;8830;50.978;5.058;2022-12-07T11:45:10;11.70;99.90
17425;DHT22;8830;50.978;5.058;2022-12-07T11:48:09;8.60;99.90
17425;DHT22;8830;50.978;5.058;2022-12-07T11:54:16;8.50;99.90
17425;DHT22;8830;50.978;5.058;2022-12-07T11:57:01;8.40;99.90
17425;DHT22;8830;50.978;5.058;2022-12-07T11:59:49;8.40;99.90
17425;DHT22;8830;50.978;5.058;2022-12-07T12:02:37;8.50;99.90
17425;DHT22;8830;50.978;5.058;2022-12-07T12:05:47;8.50;99.90
17425;DHT22;8830;50.978;5.058;2022-12-07T12:08:32;8.40;99.90
17425;DHT22;8830;50.978;5.058;2022-12-07T12:11:41;8.30;99.90
17425;DHT22;8830;50.978;5.058;2022-12-07T12:14:45;8.40;99.90
17425;DHT22;8830;50.978;5.058;2022-12-07T12:17:49;8.30;99.90
17425;DHT22;8830;50.978;5.058;2022-12-07T12:20:47;8.40;99.90
17425;DHT22;8830;50.978;5.058;2022-12-07T12:23:36;8.40;99.90
17425;DHT22;8830;50.978;5.058;2022-12-07T12:26:20;8.30;99.90
17425;DHT22;8830;50.978;5.058;2022-12-07T12:32:29;8.50;99.90
17425;DHT22;8830;50.978;5.058;2022-12-07T12:35:28;8.40;99.90
17425;DHT22;8830;50.978;5.058;2022-12-07T12:38:47;8.40;99.90
17425;DHT22;8830;50.978;5.058;2022-12-07T12:45:20;8.50;99.90
17425;DHT22;8830;50.978;5.058;2022-12-07T12:48:43;8.70;99.90
17425;DHT22;8830;50.978;5.058;2022-12-07T12:54:56;8.70;99.90
17425;DHT22;8830;50.978;5.058;2022-12-07T13:01:44;8.70;99.90
17425;DHT22;8830;50.978;5.058;2022-12-07T13:08:20;8.70;99.90
17425;DHT22;8830;50.978;5.058;2022-12-07T13:11:29;5.50;99.90
17425;DHT22;8830;50.978;5.058;2022-12-07T13:18:35;8.90;99.90
17425;DHT22;8830;50.978;5.058;2022-12-07T13:21:41;8.80;99.90
17425;DHT22;8830;50.978;5.058;2022-12-07T13:24:40;8.80;99.90
17425;DHT22;8830;50.978;5.058;2022-12-07T13:27:24;12.10;99.90
17425;DHT22;8830;50.978;5.058;2022-12-07T13:32:40;8.50;99.90
17425;DHT22;8830;50.978;5.058;2022-12-07T13:35:31;8.40;99.90
17425;DHT22;8830;50.978;5.058;2022-12-07T13:41:21;8.30;99.90
17425;DHT22;8830;50.978;5.058;2022-12-07T13:44:01;8.30;99.90
17425;DHT22;8830;50.978;5.058;2022-12-07T13:47:04;10.40;99.90
17425;DHT22;8830;50.978;5.058;2022-12-07T13:49:50;8.10;99.90
17425;DHT22;8830;50.978;5.058;2022-12-07T13:52:54;8.00;99.90
17425;DHT22;8830;50.978;5.058;2022-12-07T13:58:57;7.80;99.90
17425;DHT22;8830;50.978;5.058;2022-12-07T14:01:57;7.80;99.90
17425;DHT22;8830;50.978;5.058;2022-12-07T14:04:52;7.80;99.90
17425;DHT22;8830;50.978;5.058;2022-12-07T14:10:23;7.80;99.90
17425;DHT22;8830;50.978;5.058;2022-12-07T14:13:01;7.80;99.90
17425;DHT22;8830;50.978;5.058;2022-12-07T14:15:38;7.70;99.90
17425;DHT22;8830;50.978;5.058;2022-12-07T14:18:26;7.70;99.90
17425;DHT22;8830;50.978;5.058;2022-12-07T14:21:05;7.70;99.90
17425;DHT22;8830;50.978;5.058;2022-12-07T14:23:37;7.70;99.90
17425;DHT22;8830;50.978;5.058;2022-12-07T14:26:10;7.70;99.90
17425;DHT22;8830;50.978;5.058;2022-12-07T14:28:39;7.70;99.90
17425;DHT22;8830;50.978;5.058;2022-12-07T14:31:13;7.70;99.90
17425;DHT22;8830;50.978;5.058;2022-12-07T14:33:44;8.00;99.90
17425;DHT22;8830;50.978;5.058;2022-12-07T14:36:15;7.70;99.90
17425;DHT22;8830;50.978;5.058;2022-12-07T14:38:51;7.70;99.90
17425;DHT22;8830;50.978;5.058;2022-12-07T14:41:23;7.60;99.90
17425;DHT22;8830;50.978;5.058;2022-12-07T14:44:12;7.60;99.90
17425;DHT22;8830;50.978;5.058;2022-12-07T14:46:52;7.50;99.90
17425;DHT22;8830;50.978;5.058;2022-12-07T14:49:25;7.60;99.90
17425;DHT22;8830;50.978;5.058;2022-12-07T14:52:03;7.50;99.90
17425;DHT22;8830;50.978;5.058;2022-12-07T14:54:34;7.50;99.90
17425;DHT22;8830;50.978;5.058;2022-12-07T14:57:13;7.50;99.90
17425;DHT22;8830;50.978;5.058;2022-12-07T15:00:14;7.40;99.90
17425;DHT22;8830;50.978;5.058;2022-12-07T15:02:57;7.40;99.90
17425;DHT22;8830;50.978;5.058;2022-12-07T15:05:27;7.40;99.90
17425;DHT22;8830;50.978;5.058;2022-12-07T15:07:57;7.30;99.90
17425;DHT22;8830;50.978;5.058;2022-12-07T15:10:33;7.10;99.90
17425;DHT22;8830;50.978;5.058;2022-12-07T15:13:09;7.10;99.90
17425;DHT22;8830;50.978;5.058;2022-12-07T15:15:55;7.00;99.90
17425;DHT22;8830;50.978;5.058;2022-12-07T15:18:35;6.90;99.90
17425;DHT22;8830;50.978;5.058;2022-12-07T15:21:14;6.90;99.90
17425;DHT22;8830;50.978;5.058;2022-12-07T15:23:46;6.90;99.90
17425;DHT22;8830;50.978;5.058;2022-12-07T15:26:28;6.80;99.90
17425;DHT22;8830;50.978;5.058;2022-12-07T15:28:57;6.80;99.90
17425;DHT22;8830;50.978;5.058;2022-12-07T15:31:26;6.80;99.90
17425;DHT22;8830;50.978;5.058;2022-12-07T15:34:00;6.70;99.90
17425;DHT22;8830;50.978;5.058;2022-12-07T15:36:28;6.60;99.90
17425;DHT22;8830;50.978;5.058;2022-12-07T15:38:56;6.70;99.90
17425;DHT22;8830;50.978;5.058;2022-12-07T15:41:23;7.30;99.90
17425;DHT22;8830;50.978;5.058;2022-12-07T15:43:51;6.50;99.90
17425;DHT22;8830;50.978;5.058;2022-12-07T15:46:38;6.50;99.90
17425;DHT22;8830;50.978;5.058;2022-12-07T15:49:13;6.40;99.90
17425;DHT22;8830;50.978;5.058;2022-12-07T15:51:42;6.20;99.90
17425;DHT22;8830;50.978;5.058;2022-12-07T15:54:13;6.10;99.90
17425;DHT22;8830;50.978;5.058;2022-12-07T15:56:45;6.10;99.90
17425;DHT22;8830;50.978;5.058;2022-12-07T15:59:13;6.10;99.90
17425;DHT22;8830;50.978;5.058;2022-12-07T16:01:40;6.10;99.90
17425;DHT22;8830;50.978;5.058;2022-12-07T16:04:10;6.10;99.90
17425;DHT22;8830;50.978;5.058;2022-12-07T16:06:41;6.10;99.90
17425;DHT22;8830;50.978;5.058;2022-12-07T16:11:36;6.00;99.90
17425;DHT22;8830;50.978;5.058;2022-12-07T16:14:05;6.30;99.90
17425;DHT22;8830;50.978;5.058;2022-12-07T16:19:02;6.20;99.90
17425;DHT22;8830;50.978;5.058;2022-12-07T16:21:35;4.50;99.90
17425;DHT22;8830;50.978;5.058;2022-12-07T16:24:07;6.20;99.90
17425;DHT22;8830;50.978;5.058;2022-12-07T16:26:35;6.20;99.90
17425;DHT22;8830;50.978;5.058;2022-12-07T16:31:31;6.10;99.90
17425;DHT22;8830;50.978;5.058;2022-12-07T16:33:59;6.10;99.90
17425;DHT22;8830;50.978;5.058;2022-12-07T16:36:27;6.00;99.90
17425;DHT22;8830;50.978;5.058;2022-12-07T16:38:55;8.50;99.90
17425;DHT22;8830;50.978;5.058;2022-12-07T16:41:25;6.80;99.90
17425;DHT22;8830;50.978;5.058;2022-12-07T16:43:56;6.50;99.90
17425;DHT22;8830;50.978;5.058;2022-12-07T16:46:23;6.00;99.90
17425;DHT22;8830;50.978;5.058;2022-12-07T16:48:54;6.00;99.90
17425;DHT22;8830;50.978;5.058;2022-12-07T16:51:22;5.60;99.90
17425;DHT22;8830;50.978;5.058;2022-12-07T16:53:52;6.00;99.90
17425;DHT22;8830;50.978;5.058;2022-12-07T16:56:21;6.00;99.90
17425;DHT22;8830;50.978;5.058;2022-12-07T16:58:49;6.10;99.90
17425;DHT22;8830;50.978;5.058;2022-12-07T17:01:18;5.90;99.90
17425;DHT22;8830;50.978;5.058;2022-12-07T17:03:47;5.90;99.90
17425;DHT22;8830;50.978;5.058;2022-12-07T17:06:16;5.90;99.90
17425;DHT22;8830;50.978;5.058;2022-12-07T17:08:44;6.30;99.90
17425;DHT22;8830;50.978;5.058;2022-12-07T17:11:12;5.90;99.90
17425;DHT22;8830;50.978;5.058;2022-12-07T17:13:42;5.90;99.90
17425;DHT22;8830;50.978;5.058;2022-12-07T17:16:31;5.90;99.90
17425;DHT22;8830;50.978;5.058;2022-12-07T17:19:07;5.90;99.90
17425;DHT22;8830;50.978;5.058;2022-12-07T17:21:36;5.90;99.90
17425;DHT22;8830;50.978;5.058;2022-12-07T17:24:06;5.90;99.90
17425;DHT22;8830;50.978;5.058;2022-12-07T17:26:33;7.10;99.90
17425;DHT22;8830;50.978;5.058;2022-12-07T17:29:04;4.60;99.90
17425;DHT22;8830;50.978;5.058;2022-12-07T17:31:32;5.90;99.90
17425;DHT22;8830;50.978;5.058;2022-12-07T17:33:59;6.00;99.90
17425;DHT22;8830;50.978;5.058;2022-12-07T17:36:28;6.00;99.90
17425;DHT22;8830;50.978;5.058;2022-12-07T17:38:58;6.00;99.90
17425;DHT22;8830;50.978;5.058;2022-12-07T17:41:27;6.00;99.90
17425;DHT22;8830;50.978;5.058;2022-12-07T17:44:14;6.00;99.90
17425;DHT22;8830;50.978;5.058;2022-12-07T17:46:42;6.40;99.90
17425;DHT22;8830;50.978;5.058;2022-12-07T17:49:12;6.00;99.90
17425;DHT22;8830;50.978;5.058;2022-12-07T17:51:40;7.20;99.90
17425;DHT22;8830;50.978;5.058;2022-12-07T17:54:28;6.30;99.90
17425;DHT22;8830;50.978;5.058;2022-12-07T17:56:55;5.70;99.90
17425;DHT22;8830;50.978;5.058;2022-12-07T17:59:24;6.80;99.90
17425;DHT22;8830;50.978;5.058;2022-12-07T18:01:54;5.80;99.90
17425;DHT22;8830;50.978;5.058;2022-12-07T18:06:50;5.90;99.90
17425;DHT22;8830;50.978;5.058;2022-12-07T18:09:18;6.00;99.90